Airfield :
LOGIN :

Register | Disclaimer

   EN    FR    IT 

 










Legend :    VFR   Marginal VFR   IFR   Intensive IFR   Very Intensive IFR
Visi :
Ceiling :
>= 8 km
>= 3000ft
5 to 8 km
1000 to 3000 ft
1500m to 5 km
500 to 1000 ft
800 to 1500m
200 to 500 ft
< 800m
< 200 ft
Symbols :   Thunderstorms  Fog  Heavy snow  Heavy precipitations  Wind > 20 kt
SIGMETs :     Misc.  Thunderstorms  Icing  Turbulence  Mountain Waves  Volcanic Ashes






- Airport Elevation : 1682 ft
- IATA code : VIT


LEVT - Vitoria Gasteiz

CURRENT METAR :
  • 190530Z 00000KT 8000 FEW035 16/15 Q1021

EXPIRED METARs :
  • 190500Z 00000KT 8000 FEW024 16/15 Q1021
  • 190430Z 30002KT 8000 FEW024 17/16 Q1021
  • 190400Z 00000KT 7000 BKN023 17/16 Q1021
  • 190330Z VRB02KT 7000 BKN025 17/16 Q1021
  • 190300Z VRB02KT 7000 BKN025 17/16 Q1021
  • 190230Z VRB02KT 7000 BKN025 17/16 Q1021
  • 190200Z 11003KT 7000 BKN025 17/16 Q1021
  • 190130Z 08003KT 8000 BKN025 16/16 Q1021
  • 190100Z 10002KT 6000 FEW025 16/15 Q1021
  • 190030Z VRB02KT 6000 FEW025 16/15 Q1021

TAF TAF LEVT
Valid from the 19 at 06:00 until the 20 at 06:00 UTC


190500Z 1906/2006 VRB03KT 9999 SCT020 TX34/1913Z TN18/1906Z
BECMG 1912/1914 02012KT
PROB30
TEMPO 1915/1919 32010KT
BECMG 1919/1921 VRB03KT
PROB40
TEMPO 2000/2006 BKN010



MET'MAP, your aeronautical weather chart ! - Copyright ORBIFLY December 2007 - Disclaimer

ORBIFLY MET'MAP TEAM :

Programming & Development : Alexandra Zaïnal
Original concept : Baudouin d'Aumeries
Technical & hardware support : Manuel Goepfert
Assistance : Marc-Olivier Méhu




SOURCES & CREDITS :

   NOAA